Wetterdaten vom Dienstag, 20. November 2018

Temperatur Taupunkt Windchill Luftfeuchte Luftdruck Solarstrahlung Regen ET
(Verdunstung von Wasser)
Wind
Max 0.7 °C
08:15
-2 °C
08:15
-3.6 °C
06:10
83%
05:15
994.7 hPa
00:00
15 W/m²
08:25
18.8 km/h
07:35 km/h
Durchschnitt 0.1 °C -2.7 °C -5.9 °C 81% 992.8 hPa 9 W/m² 0 mm 0.203 mm 13.5 km/h
Min -0.3 °C
01:20
-3.4 °C
00:50
-8.5 °C
07:35
78%
00:00
991.4 hPa
07:10
14.5 km/h (Böe)
06:05 km/h
Zeit
00:00 0.3 °C -3.1 °C -5.1 °C 78% 994.7 hPa 0 W/m² 0.0 mm 0.000 mm 12.7 km/h
00:05 0.2 °C -3.2 °C -5.4 °C 78% 994.7 hPa 0 W/m² 0.0 mm 0.000 mm 12.9 km/h
00:10 0.2 °C -3.2 °C -5.8 °C 78% 994.6 hPa 0 W/m² 0.0 mm 0.000 mm 13.5 km/h
00:15 0.2 °C -3.0 °C -6.2 °C 79% 994.6 hPa 0 W/m² 0.0 mm 0.000 mm 14.1 km/h
00:20 0.2 °C -3.0 °C -5.0 °C 79% 994.5 hPa 0 W/m² 0.0 mm 0.000 mm 12.3 km/h
00:25 0.1 °C -3.1 °C -5.4 °C 79% 994.5 hPa 0 W/m² 0.0 mm 0.000 mm 12.8 km/h
00:30 0.0 °C -3.2 °C -5.9 °C 79% 994.5 hPa 0 W/m² 0.0 mm 0.000 mm 13.3 km/h
00:35 -0.1 °C -3.3 °C -5.3 °C 79% 994.5 hPa 0 W/m² 0.0 mm 0.000 mm 12.2 km/h
00:40 -0.1 °C -3.3 °C -5.5 °C 79% 994.5 hPa 0 W/m² 0.0 mm 0.000 mm 12.6 km/h
00:45 -0.1 °C -3.3 °C -6.2 °C 79% 994.5 hPa 0 W/m² 0.0 mm 0.000 mm 13.5 km/h
00:50 -0.2 °C -3.4 °C -5.3 °C 79% 994.4 hPa 0 W/m² 0.0 mm 0.000 mm 12.1 km/h
00:55 -0.2 °C -3.4 °C -5.4 °C 79% 994.5 hPa 0 W/m² 0.0 mm 0.000 mm 12.2 km/h
01:00 -0.2 °C -3.4 °C -5.0 °C 79% 994.5 hPa 0 W/m² 0.0 mm 0.025 mm 11.7 km/h
01:05 -0.2 °C -3.4 °C -4.9 °C 79% 994.5 hPa 0 W/m² 0.0 mm 0.000 mm 11.5 km/h
01:10 -0.2 °C -3.4 °C -4.6 °C 79% 994.2 hPa 0 W/m² 0.0 mm 0.000 mm 11.2 km/h
01:15 -0.2 °C -3.2 °C -5.7 °C 80% 994.3 hPa 0 W/m² 0.0 mm 0.000 mm 12.7 km/h
01:20 -0.3 °C -3.3 °C -6.4 °C 80% 994.0 hPa 0 W/m² 0.0 mm 0.000 mm 13.5 km/h
01:25 -0.2 °C -3.1 °C -5.8 °C 81% 994.0 hPa 0 W/m² 0.0 mm 0.000 mm 12.8 km/h
01:30 -0.2 °C -3.1 °C -5.4 °C 81% 994.0 hPa 0 W/m² 0.0 mm 0.000 mm 12.3 km/h
01:35 -0.2 °C -3.1 °C -5.4 °C 81% 993.6 hPa 0 W/m² 0.0 mm 0.000 mm 12.2 km/h
01:40 -0.1 °C -3.0 °C -6.5 °C 81% 993.8 hPa 0 W/m² 0.0 mm 0.000 mm 14.0 km/h
01:45 -0.1 °C -3.0 °C -6.4 °C 81% 993.7 hPa 0 W/m² 0.0 mm 0.000 mm 13.8 km/h
01:50 -0.1 °C -3.0 °C -6.4 °C 81% 993.7 hPa 0 W/m² 0.0 mm 0.000 mm 13.8 km/h
01:55 -0.1 °C -3.0 °C -6.2 °C 81% 993.6 hPa 0 W/m² 0.0 mm 0.000 mm 13.5 km/h
02:00 -0.1 °C -3.0 °C -5.4 °C 81% 993.7 hPa 0 W/m² 0.0 mm 0.026 mm 12.4 km/h
02:05 0.0 °C -2.9 °C -5.6 °C 81% 993.6 hPa 0 W/m² 0.0 mm 0.000 mm 12.9 km/h
02:10 0.0 °C -3.0 °C -4.5 °C 80% 993.6 hPa 0 W/m² 0.0 mm 0.000 mm 11.3 km/h
02:15 0.1 °C -2.9 °C -4.9 °C 80% 993.4 hPa 0 W/m² 0.0 mm 0.000 mm 12.0 km/h
02:20 0.1 °C -2.9 °C -4.8 °C 80% 993.6 hPa 0 W/m² 0.0 mm 0.000 mm 11.9 km/h
02:25 0.1 °C -2.9 °C -5.0 °C 80% 993.4 hPa 0 W/m² 0.0 mm 0.000 mm 12.1 km/h
02:30 0.2 °C -2.8 °C -4.8 °C 80% 993.4 hPa 0 W/m² 0.0 mm 0.000 mm 12.0 km/h
02:35 0.2 °C -2.8 °C -4.3 °C 80% 993.4 hPa 0 W/m² 0.0 mm 0.000 mm 11.3 km/h
02:40 0.2 °C -2.8 °C -5.1 °C 80% 993.3 hPa 0 W/m² 0.0 mm 0.000 mm 12.4 km/h
02:45 0.2 °C -2.7 °C -5.0 °C 81% 993.3 hPa 0 W/m² 0.0 mm 0.000 mm 12.3 km/h
02:50 0.2 °C -2.7 °C -6.1 °C 81% 993.3 hPa 0 W/m² 0.0 mm 0.000 mm 14.0 km/h
02:55 0.2 °C -2.7 °C -5.5 °C 81% 993.1 hPa 0 W/m² 0.0 mm 0.000 mm 13.0 km/h
03:00 0.2 °C -2.7 °C -5.4 °C 81% 993.2 hPa 0 W/m² 0.0 mm 0.025 mm 12.9 km/h
03:05 0.2 °C -2.7 °C -5.5 °C 81% 993.1 hPa 0 W/m² 0.0 mm 0.000 mm 13.0 km/h
03:10 0.2 °C -2.7 °C -5.1 °C 81% 993.3 hPa 0 W/m² 0.0 mm 0.000 mm 12.4 km/h
03:15 0.2 °C -2.7 °C -5.7 °C 81% 992.8 hPa 0 W/m² 0.0 mm 0.000 mm 13.4 km/h
03:20 0.2 °C -2.7 °C -4.5 °C 81% 992.8 hPa 0 W/m² 0.0 mm 0.000 mm 11.6 km/h
03:25 0.3 °C -2.6 °C -5.4 °C 81% 992.7 hPa 0 W/m² 0.0 mm 0.000 mm 13.0 km/h
03:30 0.3 °C -2.6 °C -5.0 °C 81% 992.8 hPa 0 W/m² 0.0 mm 0.000 mm 12.5 km/h
03:35 0.3 °C -2.6 °C -6.1 °C 81% 992.5 hPa 0 W/m² 0.0 mm 0.000 mm 14.1 km/h
03:40 0.3 °C -2.6 °C -5.2 °C 81% 992.5 hPa 0 W/m² 0.0 mm 0.000 mm 12.8 km/h
03:45 0.3 °C -2.6 °C -6.0 °C 81% 992.4 hPa 0 W/m² 0.0 mm 0.000 mm 14.0 km/h
03:50 0.3 °C -2.6 °C -5.7 °C 81% 992.2 hPa 0 W/m² 0.0 mm 0.000 mm 13.6 km/h
03:55 0.3 °C -2.7 °C -6.1 °C 80% 992.3 hPa 0 W/m² 0.0 mm 0.000 mm 14.2 km/h
04:00 0.3 °C -2.7 °C -4.7 °C 80% 992.5 hPa 0 W/m² 0.0 mm 0.026 mm 12.0 km/h
04:05 0.3 °C -2.6 °C -4.4 °C 81% 992.7 hPa 0 W/m² 0.0 mm 0.000 mm 11.7 km/h
04:10 0.3 °C -2.6 °C -4.1 °C 81% 992.4 hPa 0 W/m² 0.0 mm 0.000 mm 11.3 km/h
04:15 0.2 °C -2.7 °C -4.3 °C 81% 992.5 hPa 0 W/m² 0.0 mm 0.000 mm 11.4 km/h
04:20 0.1 °C -2.8 °C -5.3 °C 81% 992.7 hPa 0 W/m² 0.0 mm 0.000 mm 12.6 km/h
04:25 0.1 °C -2.8 °C -4.1 °C 81% 992.8 hPa 0 W/m² 0.0 mm 0.000 mm 11.0 km/h
04:30 0.0 °C -2.7 °C -5.4 °C 82% 992.7 hPa 0 W/m² 0.0 mm 0.000 mm 12.5 km/h
04:35 -0.1 °C -2.8 °C -6.2 °C 82% 992.4 hPa 0 W/m² 0.0 mm 0.000 mm 13.5 km/h
04:40 -0.1 °C -2.8 °C -7.2 °C 82% 992.6 hPa 0 W/m² 0.0 mm 0.000 mm 15.1 km/h
04:45 -0.1 °C -2.8 °C -6.1 °C 82% 992.6 hPa 0 W/m² 0.0 mm 0.000 mm 13.4 km/h
04:50 -0.1 °C -2.8 °C -6.5 °C 82% 992.5 hPa 0 W/m² 0.0 mm 0.000 mm 14.1 km/h
04:55 -0.2 °C -2.9 °C -7.0 °C 82% 992.1 hPa 0 W/m² 0.0 mm 0.000 mm 14.6 km/h
05:00 -0.2 °C -2.9 °C -7.0 °C 82% 992.3 hPa 0 W/m² 0.0 mm 0.025 mm 14.6 km/h
05:05 -0.3 °C -3.0 °C -6.5 °C 82% 992.4 hPa 0 W/m² 0.0 mm 0.000 mm 13.6 km/h
05:10 -0.3 °C -3.0 °C -6.5 °C 82% 992.3 hPa 0 W/m² 0.0 mm 0.000 mm 13.6 km/h
05:15 -0.3 °C -2.8 °C -6.8 °C 83% 992.2 hPa 0 W/m² 0.0 mm 0.000 mm 14.1 km/h
05:20 -0.3 °C -2.8 °C -6.8 °C 83% 992.0 hPa 0 W/m² 0.0 mm 0.000 mm 14.2 km/h
05:25 -0.2 °C -2.7 °C -7.5 °C 83% 991.9 hPa 0 W/m² 0.0 mm 0.000 mm 15.5 km/h
05:30 -0.2 °C -2.7 °C -7.0 °C 83% 992.1 hPa 0 W/m² 0.0 mm 0.000 mm 14.7 km/h
05:35 -0.2 °C -2.7 °C -6.3 °C 83% 992.1 hPa 0 W/m² 0.0 mm 0.000 mm 13.5 km/h
05:40 -0.2 °C -2.7 °C -5.8 °C 83% 992.1 hPa 0 W/m² 0.0 mm 0.000 mm 12.8 km/h
05:45 -0.2 °C -2.7 °C -5.8 °C 83% 992.0 hPa 0 W/m² 0.0 mm 0.000 mm 12.8 km/h
05:50 -0.2 °C -2.7 °C -6.5 °C 83% 991.8 hPa 0 W/m² 0.0 mm 0.000 mm 13.9 km/h
05:55 -0.2 °C -2.7 °C -6.6 °C 83% 991.7 hPa 0 W/m² 0.0 mm 0.000 mm 14.0 km/h
06:00 -0.2 °C -2.7 °C -4.9 °C 83% 991.8 hPa 0 W/m² 0.0 mm 0.025 mm 11.5 km/h
06:05 -0.2 °C -2.7 °C -4.2 °C 83% 991.9 hPa 0 W/m² 0.0 mm 0.000 mm 10.6 km/h
06:10 -0.2 °C -2.7 °C -3.6 °C 83% 992.1 hPa 0 W/m² 0.0 mm 0.000 mm 9.9 km/h
06:15 -0.2 °C -2.7 °C -5.6 °C 83% 991.9 hPa 0 W/m² 0.0 mm 0.000 mm 12.5 km/h
06:20 -0.2 °C -2.7 °C -5.4 °C 83% 991.9 hPa 0 W/m² 0.0 mm 0.000 mm 12.2 km/h
06:25 -0.1 °C -2.6 °C -3.7 °C 83% 992.0 hPa 0 W/m² 0.0 mm 0.000 mm 10.2 km/h
06:30 -0.1 °C -2.6 °C -6.6 °C 83% 992.0 hPa 0 W/m² 0.0 mm 0.000 mm 14.2 km/h
06:35 0.0 °C -2.5 °C -6.2 °C 83% 992.0 hPa 0 W/m² 0.0 mm 0.000 mm 13.8 km/h
06:40 0.1 °C -2.4 °C -6.4 °C 83% 991.8 hPa 0 W/m² 0.0 mm 0.000 mm 14.2 km/h
06:45 0.1 °C -2.4 °C -6.6 °C 83% 991.8 hPa 0 W/m² 0.0 mm 0.000 mm 14.6 km/h
06:50 0.1 °C -2.4 °C -6.4 °C 83% 991.7 hPa 0 W/m² 0.0 mm 0.000 mm 14.2 km/h
06:55 0.2 °C -2.3 °C -6.9 °C 83% 991.7 hPa 0 W/m² 0.0 mm 0.000 mm 15.2 km/h
07:00 0.2 °C -2.3 °C -8.0 °C 83% 991.7 hPa 0 W/m² 0.0 mm 0.026 mm 17.2 km/h
07:05 0.2 °C -2.3 °C -5.9 °C 83% 991.8 hPa 0 W/m² 0.0 mm 0.000 mm 13.7 km/h
07:10 0.3 °C -2.2 °C -7.6 °C 83% 991.4 hPa 0 W/m² 0.0 mm 0.000 mm 16.8 km/h
07:15 0.3 °C -2.2 °C -6.9 °C 83% 991.5 hPa 0 W/m² 0.0 mm 0.000 mm 15.5 km/h
07:20 0.3 °C -2.2 °C -7.0 °C 83% 991.6 hPa 0 W/m² 0.0 mm 0.000 mm 15.7 km/h
07:25 0.3 °C -2.4 °C -7.6 °C 82% 991.7 hPa 0 W/m² 0.0 mm 0.000 mm 16.8 km/h
07:30 0.4 °C -2.3 °C -7.5 °C 82% 991.5 hPa 0 W/m² 0.0 mm 0.000 mm 16.8 km/h
07:35 0.4 °C -2.3 °C -8.5 °C 82% 991.7 hPa 0 W/m² 0.0 mm 0.000 mm 18.8 km/h
07:40 0.4 °C -2.3 °C -7.8 °C 82% 991.6 hPa 0 W/m² 0.0 mm 0.000 mm 17.4 km/h
07:45 0.5 °C -2.2 °C -6.9 °C 82% 991.6 hPa 0 W/m² 0.0 mm 0.000 mm 15.9 km/h
07:50 0.5 °C -2.2 °C -6.3 °C 82% 991.6 hPa 0 W/m² 0.0 mm 0.000 mm 14.9 km/h
07:55 0.5 °C -2.2 °C -5.3 °C 82% 991.8 hPa 0 W/m² 0.0 mm 0.000 mm 13.3 km/h
08:00 0.6 °C -2.1 °C -6.3 °C 82% 991.6 hPa 1 W/m² 0.0 mm 0.025 mm 15.0 km/h
08:05 0.6 °C -2.1 °C -6.8 °C 82% 991.7 hPa 7 W/m² 0.0 mm 0.000 mm 15.9 km/h
08:10 0.6 °C -2.1 °C -7.8 °C 82% 991.7 hPa 9 W/m² 0.0 mm 0.000 mm 17.8 km/h
08:15 0.7 °C -2.0 °C -7.6 °C 82% 991.5 hPa 8 W/m² 0.0 mm 0.000 mm 17.7 km/h
08:20 0.7 °C -2.0 °C -7.1 °C 82% 991.7 hPa 11 W/m² 0.0 mm 0.000 mm 16.8 km/h
08:25 0.7 °C -2.0 °C -8.0 °C 82% 991.7 hPa 15 W/m² 0.0 mm 0.000 mm 18.5 km/h